フェニックス の空港の天気 - METARとTAF

フェニックス・スカイハーバー国際空港 ( KPHX / PHX ) - アメリカ アリゾナ州フェニックス
飛行場実況気象(Metar)
観測時間07/15 22:51 MST (07/16 05:51 UTC)
風向・風速東南東 3m/s
視程10km以上
天気現象
少しの雲 雲底高度 4270m
少しの雲 雲底高度 6400m
全天の4割程度の雲 雲底高度 7620m
気温32.2℃
湿度45%
気圧1009.7hPa
METARKPHX 160551Z 11006KT 10SM FEW140 FEW210 SCT250 32/19 A2988 RMK AO2 SLP097 T03220189 10372 20322 50010
過去の天気等 Google飛行場航空写真 Wunderground天気予報

過去48時間のMETAR

飛行場予報(TAF)
発表時間: 7/15 22:20 MST (7/16 05:20 UTC)
予報対象時間: 15日23時 MST ~ 17日5時 MST
風向・風速東 4m/s
視程10km以上
全天の4割程度の雲 雲底高度 3050m
全天の8割程度の雲 雲底高度 3660m
全天の8割程度の雲 雲底高度 6100m
16日12時 MST から
風向・風速西 4m/s
視程10km以上
全天の4割程度の雲 雲底高度 2440m
全天の4割程度の雲 雲底高度 7620m
16日19時 MST から
風向・風速北東 7m/s 瞬間風速 14m/s
視程10km以上
天気現象周辺で雷
全天の4割程度の積乱雲 雲底高度 2440m
全天の8割程度の雲 雲底高度 3660m
全天の8割程度の雲 雲底高度 6100m
16日21時 MST から
風向・風速東 6m/s
視程10km以上
全天の8割程度の雲 雲底高度 3050m
全天を覆う雲 雲底高度 6100m
KPHX 160520Z 1606/1712 10007KT P6SM SCT100 BKN120 BKN200
FM161900 27007KT P6SM SCT080 SCT250
FM170200 04014G27KT P6SM VCTS SCT080CB BKN120 BKN200
FM170400 08011KT P6SM BKN100 OVC200